FVRF weather

Rifa Airstrip
Zimbabwe

Public forecast

Using degrees Celsius for public forecast. Weather courtesy of forecast.io.

METAR (pilot weather report)

Report is more than 6 hours old.

Closest report is Kariba International Airport, 12.4 nm (23.0 km) S. Retrieved 2019/09/21 06:00 UTC (1 day ago):

FVKB 210600Z 00000KT CAVOK 27/10 Q1017

TAF (pilot weather forecast)

Forecast is more than 12 hours old.

Closest forecast is Kariba International Airport, 12.4 nm (23.0 km) S. Retrieved 2018/08/24 06:00 UTC (1 year ago):

TAF FVKB 240400Z 2406/2416 27005KT CAVOK